createdAt,value
2019-06-27T00:01:26.842Z,17.27
2019-06-27T00:03:57.122Z,17.40
2019-06-27T00:06:27.874Z,18.47
2019-06-27T00:08:58.655Z,18.13
2019-06-27T00:11:29.103Z,18.07
2019-06-27T00:13:59.884Z,18.20
2019-06-27T00:16:30.638Z,17.77
2019-06-27T00:19:00.943Z,16.93
2019-06-27T00:21:31.497Z,16.63
2019-06-27T00:24:01.808Z,17.73
2019-06-27T00:26:32.604Z,16.67
2019-06-27T00:29:02.980Z,17.30
2019-06-27T00:31:34.371Z,18.53
2019-06-27T00:34:04.770Z,19.10
2019-06-27T00:36:35.563Z,19.57
2019-06-27T00:39:06.087Z,18.90
2019-06-27T00:41:36.723Z,20.23
2019-06-27T00:44:07.322Z,19.93
2019-06-27T00:46:37.740Z,18.13
2019-06-27T00:49:08.147Z,18.90
2019-06-27T00:51:38.634Z,18.77
2019-06-27T00:54:09.378Z,18.93
2019-06-27T00:56:40.115Z,19.73
2019-06-27T00:59:10.459Z,19.60
2019-06-27T01:01:40.911Z,19.77
2019-06-27T01:04:11.808Z,19.53
2019-06-27T01:06:42.099Z,20.03
2019-06-27T01:09:12.642Z,18.83
2019-06-27T01:11:43.200Z,18.77
2019-06-27T01:14:13.544Z,18.73
2019-06-27T01:16:43.825Z,19.13
2019-06-27T01:19:14.645Z,19.40
2019-06-27T01:21:45.296Z,18.07
2019-06-27T01:24:15.595Z,17.93
2019-06-27T01:26:46.330Z,18.37
2019-06-27T01:29:16.738Z,17.37
2019-06-27T01:31:47.937Z,16.73
2019-06-27T01:34:18.706Z,15.70
2019-06-27T01:36:49.451Z,14.93
2019-06-27T01:39:19.775Z,15.83
2019-06-27T01:41:50.577Z,16.20
2019-06-27T01:44:55.615Z,15.40
2019-06-27T01:47:25.960Z,16.53
2019-06-27T01:49:56.491Z,15.33
2019-06-27T01:52:27.198Z,16.77
2019-06-27T01:54:57.723Z,16.83
2019-06-27T01:57:28.118Z,17.03
2019-06-27T01:59:58.396Z,17.97
2019-06-27T02:02:28.830Z,17.80
2019-06-27T02:04:59.446Z,17.53
2019-06-27T02:07:29.875Z,17.43
2019-06-27T02:10:00.430Z,16.93
2019-06-27T02:12:31.255Z,17.73
2019-06-27T02:15:01.564Z,17.53
2019-06-27T02:17:32.115Z,19.17
2019-06-27T02:20:02.759Z,17.73
2019-06-27T02:22:33.580Z,18.13
2019-06-27T02:25:04.111Z,18.57
2019-06-27T02:27:34.906Z,18.43
2019-06-27T02:30:06.398Z,18.13
2019-06-27T02:32:36.797Z,18.47
2019-06-27T02:35:07.613Z,17.33
2019-06-27T02:37:38.014Z,18.10
2019-06-27T02:40:09.094Z,17.17
2019-06-27T02:42:39.552Z,17.60
2019-06-27T02:45:10.098Z,17.20
2019-06-27T02:47:40.836Z,16.53
2019-06-27T02:50:11.739Z,17.33
2019-06-27T02:52:42.030Z,16.13
2019-06-27T02:55:12.845Z,16.73
2019-06-27T02:57:43.348Z,17.67
2019-06-27T03:00:13.878Z,17.87
2019-06-27T03:02:44.356Z,16.00
2019-06-27T03:05:15.330Z,20.10
2019-06-27T03:07:45.958Z,25.27
2019-06-27T03:10:17.640Z,18.23
2019-06-27T03:12:48.070Z,19.43
2019-06-27T03:15:19.124Z,18.40
2019-06-27T03:17:49.745Z,19.23
2019-06-27T03:20:20.050Z,20.93
2019-06-27T03:22:51.032Z,19.83
2019-06-27T03:25:21.424Z,20.50
2019-06-27T03:27:51.736Z,19.57
2019-06-27T03:30:22.298Z,20.20
2019-06-27T03:32:52.625Z,21.53
2019-06-27T03:35:23.454Z,22.87
2019-06-27T03:37:54.220Z,20.57
2019-06-27T03:40:24.588Z,20.77
2019-06-27T03:42:55.440Z,19.93
2019-06-27T03:45:26.173Z,21.20
2019-06-27T03:47:56.501Z,22.90
2019-06-27T03:50:26.937Z,22.57
2019-06-27T03:52:57.587Z,22.50
2019-06-27T03:55:27.901Z,21.83
2019-06-27T03:57:58.244Z,22.47
2019-06-27T04:00:33.442Z,20.83
2019-06-27T04:03:03.974Z,21.60
2019-06-27T04:05:34.601Z,20.37
2019-06-27T04:08:04.895Z,18.67
2019-06-27T04:10:35.645Z,20.77
2019-06-27T04:13:06.312Z,19.90
2019-06-27T04:15:36.645Z,20.70
2019-06-27T04:18:07.310Z,19.53
2019-06-27T04:20:37.619Z,18.33
2019-06-27T04:23:07.932Z,19.73
2019-06-27T04:25:38.212Z,17.67
2019-06-27T04:28:08.671Z,18.77
2019-06-27T04:30:39.069Z,18.30
2019-06-27T04:33:09.411Z,18.13
2019-06-27T04:35:39.755Z,19.40
2019-06-27T04:38:10.140Z,18.77
2019-06-27T04:40:40.508Z,18.60
2019-06-27T04:43:10.846Z,19.77
2019-06-27T04:45:41.142Z,16.17
2019-06-27T04:48:11.540Z,17.90
2019-06-27T04:50:41.812Z,16.03
2019-06-27T04:53:12.321Z,16.03
2019-06-27T04:55:42.751Z,16.63
2019-06-27T04:58:13.102Z,13.77
2019-06-27T05:00:43.382Z,12.30
2019-06-27T05:03:14.274Z,12.67
2019-06-27T05:05:44.620Z,12.53
2019-06-27T05:08:15.171Z,12.27
2019-06-27T05:10:45.522Z,12.90
2019-06-27T05:13:15.859Z,14.03
2019-06-27T05:15:46.251Z,12.17
2019-06-27T05:18:16.539Z,12.53
2019-06-27T05:20:46.866Z,12.80
2019-06-27T05:23:17.310Z,11.80
2019-06-27T05:25:47.658Z,13.83
2019-06-27T05:28:17.963Z,12.70
2019-06-27T05:30:51.347Z,11.83
2019-06-27T05:33:20.484Z,12.30
2019-06-27T05:35:51.043Z,12.67
2019-06-27T05:38:21.376Z,13.97
2019-06-27T05:40:51.831Z,13.63
2019-06-27T05:43:22.120Z,13.13
2019-06-27T05:45:52.418Z,12.63
2019-06-27T05:48:22.751Z,13.80
2019-06-27T05:50:53.111Z,13.83
2019-06-27T05:53:23.496Z,13.27
2019-06-27T05:55:54.127Z,12.30
2019-06-27T05:58:24.411Z,11.47
2019-06-27T06:00:54.704Z,11.37
2019-06-27T06:03:25.172Z,11.57
2019-06-27T06:05:55.664Z,12.90
2019-06-27T06:08:25.983Z,10.90
2019-06-27T06:10:56.369Z,12.57
2019-06-27T06:13:26.756Z,12.07
2019-06-27T06:16:00.869Z,9.97
2019-06-27T06:18:29.360Z,10.83
2019-06-27T06:20:59.648Z,10.43
2019-06-27T06:23:30.378Z,10.07
2019-06-27T06:26:00.755Z,9.23
2019-06-27T06:28:32.129Z,10.83
2019-06-27T06:31:02.597Z,10.63
2019-06-27T06:33:33.481Z,11.53
2019-06-27T06:36:03.735Z,11.90
2019-06-27T06:38:34.139Z,12.10
2019-06-27T06:41:04.704Z,10.80
2019-06-27T06:43:35.030Z,11.93
2019-06-27T06:46:05.344Z,10.93
2019-06-27T06:48:35.718Z,10.00
2019-06-27T06:51:06.188Z,10.70
2019-06-27T06:53:36.593Z,10.10
2019-06-27T06:56:06.907Z,9.50
2019-06-27T06:58:37.358Z,9.70
2019-06-27T07:01:07.727Z,11.12
2019-06-27T07:03:38.047Z,11.80
2019-06-27T07:06:08.490Z,10.88
2019-06-27T07:08:38.886Z,7.75
2019-06-27T07:11:09.223Z,10.20
2019-06-27T07:13:39.494Z,11.18
2019-06-27T07:16:09.846Z,10.43
2019-06-27T07:18:40.304Z,10.00
2019-06-27T07:21:10.624Z,9.13
2019-06-27T07:23:40.931Z,10.28
2019-06-27T07:26:11.479Z,8.35
2019-06-27T07:28:41.872Z,8.18
2019-06-27T07:31:17.860Z,7.83
2019-06-27T07:33:44.338Z,7.22
2019-06-27T07:36:14.646Z,7.70
2019-06-27T07:38:47.192Z,7.75
2019-06-27T07:41:17.072Z,8.63
2019-06-27T07:43:47.648Z,16.50
2019-06-27T07:46:25.091Z,9.78
2019-06-27T07:48:50.054Z,8.23
2019-06-27T07:51:21.813Z,8.30
2019-06-27T07:53:52.182Z,7.10
2019-06-27T07:56:22.547Z,11.38
2019-06-27T07:58:52.830Z,8.68
2019-06-27T08:01:34.638Z,10.95
2019-06-27T08:03:55.313Z,7.62
2019-06-27T08:06:25.667Z,23.55
2019-06-27T08:08:56.487Z,8.60
2019-06-27T08:11:26.860Z,8.60
2019-06-27T08:13:57.282Z,7.40
2019-06-27T08:16:27.604Z,7.15
2019-06-27T08:18:57.931Z,6.95
2019-06-27T08:21:28.252Z,6.95
2019-06-27T08:23:58.557Z,7.20
2019-06-27T08:26:28.938Z,7.78
2019-06-27T08:28:59.219Z,5.95
2019-06-27T08:31:29.584Z,6.75
2019-06-27T08:33:59.937Z,7.17
2019-06-27T08:36:30.284Z,7.65
2019-06-27T08:39:00.660Z,7.10
2019-06-27T08:41:32.858Z,8.20
2019-06-27T08:44:03.228Z,7.78
2019-06-27T08:46:33.551Z,6.42
2019-06-27T08:49:03.882Z,7.65
2019-06-27T08:51:34.171Z,7.62
2019-06-27T08:54:04.627Z,8.08
2019-06-27T08:56:34.903Z,8.80
2019-06-27T08:59:05.269Z,8.13
2019-06-27T09:01:35.676Z,8.85
2019-06-27T09:04:06.100Z,6.72
2019-06-27T09:06:36.480Z,6.87
2019-06-27T09:09:06.951Z,6.85
2019-06-27T09:11:38.337Z,7.30
2019-06-27T09:14:08.786Z,6.20
2019-06-27T09:16:39.204Z,7.15
2019-06-27T09:19:09.612Z,8.28
2019-06-27T09:21:39.904Z,5.90
2019-06-27T09:24:10.412Z,5.85
2019-06-27T09:26:40.685Z,5.80
2019-06-27T09:29:11.122Z,5.53
2019-06-27T09:31:41.575Z,5.65
2019-06-27T09:34:12.180Z,7.65
2019-06-27T09:36:42.599Z,5.53
2019-06-27T09:39:12.904Z,5.72
2019-06-27T09:41:43.248Z,5.33
2019-06-27T09:44:13.630Z,5.80
2019-06-27T09:46:44.042Z,6.40
2019-06-27T09:49:14.338Z,5.70
2019-06-27T09:51:44.723Z,6.53
2019-06-27T09:54:15.153Z,4.92
2019-06-27T09:56:45.924Z,6.00
2019-06-27T09:59:16.466Z,6.22
2019-06-27T10:01:46.797Z,5.97
2019-06-27T10:04:17.089Z,5.37
2019-06-27T10:06:47.718Z,5.62
2019-06-27T10:09:18.036Z,5.40
2019-06-27T10:11:48.631Z,4.83
2019-06-27T10:14:19.042Z,4.95
2019-06-27T10:16:49.373Z,10.03
2019-06-27T10:19:19.724Z,5.08
2019-06-27T10:21:50.059Z,5.80
2019-06-27T10:24:20.414Z,5.83
2019-06-27T10:26:50.895Z,5.67
2019-06-27T10:29:21.367Z,6.05
2019-06-27T10:31:51.785Z,5.10
2019-06-27T10:34:22.051Z,5.05
2019-06-27T10:36:52.484Z,5.75
2019-06-27T10:39:22.759Z,5.65
2019-06-27T10:41:53.070Z,5.65
2019-06-27T10:44:23.437Z,5.12
2019-06-27T10:46:55.887Z,5.83
2019-06-27T10:49:26.156Z,5.97
2019-06-27T10:51:56.493Z,5.33
2019-06-27T10:54:26.850Z,5.85
2019-06-27T10:56:57.226Z,5.55
2019-06-27T10:59:27.606Z,5.70
2019-06-27T11:01:57.926Z,6.15
2019-06-27T11:04:28.385Z,5.35
2019-06-27T11:06:58.764Z,5.70
2019-06-27T11:09:29.138Z,5.53
2019-06-27T11:11:59.511Z,5.53
2019-06-27T11:14:29.870Z,6.15
2019-06-27T11:17:01.551Z,5.50
2019-06-27T11:19:31.927Z,5.87
2019-06-27T11:22:02.204Z,6.75
2019-06-27T11:24:32.525Z,6.45
2019-06-27T11:27:02.825Z,6.97
2019-06-27T11:29:33.185Z,7.40
2019-06-27T11:32:03.483Z,6.28
2019-06-27T11:34:35.146Z,6.25
2019-06-27T11:37:06.735Z,6.70
2019-06-27T11:39:37.114Z,5.72
2019-06-27T11:42:07.498Z,7.00
2019-06-27T11:44:37.808Z,7.05
2019-06-27T11:47:08.597Z,7.08
2019-06-27T11:49:38.911Z,6.47
2019-06-27T11:52:09.425Z,6.62
2019-06-27T11:54:39.901Z,7.60
2019-06-27T11:57:10.370Z,6.42
2019-06-27T11:59:40.655Z,6.60
2019-06-27T12:02:10.971Z,6.33
2019-06-27T12:04:41.376Z,6.92
2019-06-27T12:07:11.864Z,6.83
2019-06-27T12:09:42.215Z,7.70
2019-06-27T12:12:12.821Z,7.70
2019-06-27T12:14:43.116Z,8.45
2019-06-27T12:17:13.444Z,7.58
2019-06-27T12:19:43.896Z,12.10
2019-06-27T12:22:14.326Z,8.13
2019-06-27T12:24:44.612Z,7.33
2019-06-27T12:27:14.953Z,7.22
2019-06-27T12:29:45.285Z,7.05
2019-06-27T12:32:15.669Z,7.80
2019-06-27T12:34:46.007Z,8.30
2019-06-27T12:37:16.391Z,6.30
2019-06-27T12:39:46.745Z,7.20
2019-06-27T12:42:31.589Z,7.25
2019-06-27T12:44:49.158Z,7.25
2019-06-27T12:47:19.684Z,6.70
2019-06-27T12:50:02.387Z,7.03
2019-06-27T12:52:22.041Z,6.83
2019-06-27T12:54:52.330Z,7.10
2019-06-27T12:57:22.946Z,6.40
2019-06-27T12:59:53.328Z,6.87
2019-06-27T13:02:23.785Z,7.33
2019-06-27T13:04:54.169Z,7.75
2019-06-27T13:07:24.759Z,7.53
2019-06-27T13:09:55.193Z,6.47
2019-06-27T13:12:25.768Z,7.85
2019-06-27T13:14:56.046Z,6.85
2019-06-27T13:17:26.808Z,6.20
2019-06-27T13:19:57.101Z,6.55
2019-06-27T13:22:27.651Z,7.80
2019-06-27T13:24:59.107Z,6.78
2019-06-27T13:27:29.789Z,7.55
2019-06-27T13:30:00.139Z,6.40
2019-06-27T13:32:30.601Z,7.90
2019-06-27T13:35:00.964Z,6.83
2019-06-27T13:37:31.286Z,7.83
2019-06-27T13:40:04.758Z,7.60
2019-06-27T13:42:38.226Z,6.70
2019-06-27T13:45:07.250Z,6.60
2019-06-27T13:47:38.773Z,6.90
2019-06-27T13:50:09.569Z,7.78
2019-06-27T13:52:39.946Z,7.25
2019-06-27T13:55:10.833Z,7.30
2019-06-27T13:57:41.159Z,7.55
2019-06-27T14:00:12.226Z,7.58
2019-06-27T14:02:42.617Z,7.17
2019-06-27T14:05:13.203Z,6.72
2019-06-27T14:07:43.517Z,6.28
2019-06-27T14:10:14.010Z,7.22
2019-06-27T14:12:44.982Z,7.83
2019-06-27T14:15:15.572Z,7.67
2019-06-27T14:17:45.960Z,8.08
2019-06-27T14:20:16.244Z,7.28
2019-06-27T14:22:46.556Z,7.58
2019-06-27T14:25:16.949Z,7.25
2019-06-27T14:27:47.347Z,7.83
2019-06-27T14:30:19.067Z,7.72
2019-06-27T14:32:53.127Z,8.05
2019-06-27T14:35:21.580Z,8.18
2019-06-27T14:37:51.870Z,7.25
2019-06-27T14:40:23.025Z,7.87
2019-06-27T14:42:53.363Z,7.78
2019-06-27T14:45:25.185Z,7.90
2019-06-27T14:47:55.622Z,7.75
2019-06-27T14:50:25.982Z,8.25
2019-06-27T14:52:56.307Z,8.38
2019-06-27T14:55:26.682Z,7.90
2019-06-27T14:57:57.020Z,9.65
2019-06-27T15:00:27.623Z,8.50
2019-06-27T15:02:57.998Z,7.97
2019-06-27T15:05:32.842Z,8.55
2019-06-27T15:08:01.415Z,7.92
2019-06-27T15:10:31.885Z,8.30
2019-06-27T15:13:02.235Z,8.53
2019-06-27T15:15:32.676Z,8.28
2019-06-27T15:18:03.277Z,8.23
2019-06-27T15:20:33.726Z,7.83
2019-06-27T15:23:04.096Z,6.92
2019-06-27T15:25:34.425Z,7.85
2019-06-27T15:28:04.696Z,7.72
2019-06-27T15:30:35.153Z,11.97
2019-06-27T15:33:05.922Z,8.05
2019-06-27T15:35:50.999Z,7.70
2019-06-27T15:38:08.259Z,7.85
2019-06-27T15:40:38.595Z,8.18
2019-06-27T15:43:10.014Z,7.72
2019-06-27T15:45:40.732Z,7.90
2019-06-27T15:48:11.099Z,8.15
2019-06-27T15:50:41.593Z,7.80
2019-06-27T15:53:12.152Z,7.05
2019-06-27T15:55:42.591Z,9.00
2019-06-27T15:58:13.329Z,7.83
2019-06-27T16:00:43.971Z,8.48
2019-06-27T16:03:14.242Z,8.13
2019-06-27T16:05:44.984Z,7.33
2019-06-27T16:08:15.740Z,8.53
2019-06-27T16:10:46.169Z,7.83
2019-06-27T16:13:16.581Z,7.47
2019-06-27T16:15:47.024Z,7.87
2019-06-27T16:18:17.343Z,8.90
2019-06-27T16:20:47.756Z,8.58
2019-06-27T16:23:18.283Z,8.63
2019-06-27T16:25:48.959Z,8.80
2019-06-27T16:28:19.592Z,8.90
2019-06-27T16:30:49.955Z,8.80
2019-06-27T16:33:20.537Z,8.23
2019-06-27T16:35:51.216Z,7.40
2019-06-27T16:38:22.505Z,9.05
2019-06-27T16:40:52.978Z,8.30
2019-06-27T16:43:23.385Z,8.75
2019-06-27T16:45:53.670Z,8.80
2019-06-27T16:48:24.000Z,8.50
2019-06-27T16:50:54.493Z,8.20
2019-06-27T16:53:25.079Z,7.72
2019-06-27T16:55:56.941Z,8.63
2019-06-27T16:58:27.215Z,8.60
2019-06-27T17:00:57.713Z,8.65
2019-06-27T17:03:28.451Z,8.15
2019-06-27T17:05:58.747Z,7.75
2019-06-27T17:08:29.031Z,7.87
2019-06-27T17:10:59.787Z,7.35
2019-06-27T17:13:30.159Z,7.40
2019-06-27T17:16:00.471Z,7.60
2019-06-27T17:18:31.223Z,7.65
2019-06-27T17:21:01.876Z,7.67
2019-06-27T17:23:32.149Z,7.42
2019-06-27T17:26:02.898Z,8.33
2019-06-27T17:28:35.307Z,7.80
2019-06-27T17:31:05.679Z,7.60
2019-06-27T17:33:36.218Z,7.30
2019-06-27T17:36:06.539Z,8.18
2019-06-27T17:38:37.258Z,7.92
2019-06-27T17:41:08.024Z,7.08
2019-06-27T17:43:40.513Z,8.40
2019-06-27T17:46:10.416Z,7.30
2019-06-27T17:48:41.135Z,8.20
2019-06-27T17:51:11.477Z,7.35
2019-06-27T17:53:42.862Z,7.80
2019-06-27T17:56:13.635Z,7.67
2019-06-27T17:58:43.914Z,13.68
2019-06-27T18:01:14.496Z,9.43
2019-06-27T18:03:45.857Z,8.25
2019-06-27T18:06:16.595Z,8.85
2019-06-27T18:08:47.236Z,8.63
2019-06-27T18:11:17.540Z,8.93
2019-06-27T18:13:47.904Z,9.20
2019-06-27T18:16:18.367Z,9.23
2019-06-27T18:18:48.654Z,8.33
2019-06-27T18:21:19.070Z,9.18
2019-06-27T18:23:50.913Z,7.70
2019-06-27T18:26:21.229Z,8.90
2019-06-27T18:28:51.494Z,8.90
2019-06-27T18:31:22.155Z,10.60
2019-06-27T18:33:52.698Z,10.53
2019-06-27T18:36:23.004Z,8.85
2019-06-27T18:38:53.614Z,10.35
2019-06-27T18:41:24.202Z,10.68
2019-06-27T18:43:54.513Z,8.98
2019-06-27T18:46:24.931Z,9.55
2019-06-27T18:48:55.691Z,10.00
2019-06-27T18:51:26.252Z,9.38
2019-06-27T18:53:56.718Z,9.13
2019-06-27T18:56:27.542Z,10.50
2019-06-27T18:58:57.960Z,8.93
2019-06-27T19:01:28.389Z,9.83
2019-06-27T19:03:58.922Z,9.65
2019-06-27T19:06:29.772Z,9.85
2019-06-27T19:09:00.305Z,10.90
2019-06-27T19:11:30.613Z,10.20
2019-06-27T19:14:01.101Z,11.03
2019-06-27T19:16:31.701Z,10.10
2019-06-27T19:19:04.838Z,11.83
2019-06-27T19:21:51.300Z,11.20
2019-06-27T19:24:49.944Z,11.83
2019-06-27T19:27:20.339Z,12.37
2019-06-27T19:29:50.640Z,11.15
2019-06-27T19:32:21.193Z,10.13
2019-06-27T19:34:51.676Z,11.20
2019-06-27T19:37:22.288Z,12.13
2019-06-27T19:39:52.594Z,11.35
2019-06-27T19:42:22.992Z,11.17
2019-06-27T19:44:53.406Z,11.47
2019-06-27T19:47:23.696Z,11.33
2019-06-27T19:49:54.031Z,10.57
2019-06-27T19:52:24.775Z,11.57
2019-06-27T19:54:55.333Z,11.63
2019-06-27T19:57:26.418Z,12.50
2019-06-27T19:59:57.203Z,11.30
2019-06-27T20:02:28.917Z,12.10
2019-06-27T20:04:59.244Z,11.47
2019-06-27T20:07:29.916Z,11.97
2019-06-27T20:10:00.193Z,11.70
2019-06-27T20:12:30.605Z,12.60
2019-06-27T20:15:01.902Z,11.53
2019-06-27T20:17:32.288Z,11.83
2019-06-27T20:20:03.191Z,12.07
2019-06-27T20:22:33.872Z,12.73
2019-06-27T20:25:05.432Z,12.47
2019-06-27T20:27:36.231Z,12.17
2019-06-27T20:30:07.312Z,12.37
2019-06-27T20:32:37.652Z,12.53
2019-06-27T20:35:08.947Z,13.30
2019-06-27T20:37:39.847Z,12.47
2019-06-27T20:40:10.483Z,13.83
2019-06-27T20:42:41.694Z,13.47
2019-06-27T20:45:12.414Z,13.40
2019-06-27T20:47:43.021Z,12.43
2019-06-27T20:50:14.081Z,13.53
2019-06-27T20:52:44.366Z,13.00
2019-06-27T20:55:16.081Z,13.87
2019-06-27T20:57:46.727Z,12.57
2019-06-27T21:00:17.396Z,14.00
2019-06-27T21:02:47.803Z,13.43
2019-06-27T21:05:18.397Z,15.47
2019-06-27T21:07:48.725Z,14.97
2019-06-27T21:10:19.454Z,15.20
2019-06-27T21:12:49.904Z,14.30
2019-06-27T21:15:20.362Z,15.23
2019-06-27T21:17:51.124Z,14.57
2019-06-27T21:20:21.860Z,13.63
2019-06-27T21:22:52.243Z,14.07
2019-06-27T21:25:23.296Z,14.17
2019-06-27T21:27:53.568Z,14.53
2019-06-27T21:30:24.215Z,14.83
2019-06-27T21:32:54.809Z,14.73
2019-06-27T21:35:25.288Z,13.93
2019-06-27T21:37:55.721Z,14.03
2019-06-27T21:40:26.392Z,13.33
2019-06-27T21:42:57.033Z,13.97
2019-06-27T21:45:27.361Z,14.63
2019-06-27T21:47:57.664Z,14.17
2019-06-27T21:50:28.030Z,13.50
2019-06-27T21:52:58.668Z,13.97
2019-06-27T21:55:29.236Z,13.70
2019-06-27T21:58:00.248Z,13.57
2019-06-27T22:00:33.442Z,14.00
2019-06-27T22:03:05.735Z,14.07
2019-06-27T22:05:36.049Z,14.77
2019-06-27T22:08:06.815Z,14.73
2019-06-27T22:10:37.645Z,15.87
2019-06-27T22:13:07.942Z,14.93
2019-06-27T22:15:38.260Z,14.67
2019-06-27T22:18:08.687Z,15.07
2019-06-27T22:20:39.838Z,15.10
2019-06-27T22:23:10.672Z,15.73
2019-06-27T22:25:41.269Z,14.43
2019-06-27T22:28:12.156Z,14.50
2019-06-27T22:30:42.790Z,15.20
2019-06-27T22:33:13.222Z,14.53
2019-06-27T22:35:43.730Z,14.50
2019-06-27T22:38:32.069Z,13.60
2019-06-27T22:41:19.642Z,14.63
2019-06-27T22:44:07.283Z,14.77
2019-06-27T22:46:55.501Z,14.40
2019-06-27T22:49:24.911Z,13.70
2019-06-27T22:52:14.150Z,14.47
2019-06-27T22:54:46.541Z,13.80
2019-06-27T22:57:17.028Z,13.83
2019-06-27T22:59:47.312Z,13.83
2019-06-27T23:02:17.994Z,14.20
2019-06-27T23:04:48.701Z,12.73
2019-06-27T23:07:19.000Z,14.57
2019-06-27T23:09:56.809Z,13.73
2019-06-27T23:12:21.610Z,14.23
2019-06-27T23:14:51.926Z,14.40
2019-06-27T23:17:22.437Z,13.40
2019-06-27T23:19:53.201Z,12.73
2019-06-27T23:22:23.481Z,13.40
2019-06-27T23:24:54.220Z,13.53
2019-06-27T23:27:24.492Z,13.03
2019-06-27T23:29:55.208Z,12.83
2019-06-27T23:32:26.000Z,13.87
2019-06-27T23:34:56.345Z,13.70
2019-06-27T23:37:26.772Z,14.53
2019-06-27T23:40:12.796Z,14.00
2019-06-27T23:42:29.571Z,14.10
2019-06-27T23:44:59.936Z,13.30
2019-06-27T23:47:30.518Z,14.00
2019-06-27T23:50:00.815Z,14.37
2019-06-27T23:52:31.256Z,13.63
2019-06-27T23:55:01.953Z,13.30
2019-06-27T23:57:33.396Z,13.93
